Time;durP1;ratioP1;P1;durP2;ratioP2;P2;SDS_P1;SDS_P2;PMS_P1;PMS_P2;Temp;Humidity;BMP_temperature;BMP_pressure;BME280_temperature;BME280_humidity;BME280_pressure;Samples;Min_cycle;Max_cycle;Signal;HPM_P1;HPM_P2
2022/07/09 00:01:54;;;;;;;6.07;2.63;;;;;;;12.28;56.45;102692.59;5019739;28;20042;-76
2022/07/09 00:04:19;;;;;;;3.55;1.92;;;;;;;12.26;56.29;102705.72;5017667;28;20038;-76
2022/07/09 00:06:45;;;;;;;4.00;2.80;;;;;;;12.27;56.07;102702.25;4998246;28;20052;-76
2022/07/09 00:09:12;;;;;;;4.28;2.28;;;;;;;12.25;56.31;102698.78;5019229;28;20052;-78
2022/07/09 00:11:37;;;;;;;4.47;2.40;;;;;;;12.24;56.19;102694.41;5023910;28;20450;-76
2022/07/09 00:14:03;;;;;;;5.38;2.53;;;;;;;12.22;56.28;102693.59;5019876;28;20030;-79
2022/07/09 00:16:28;;;;;;;5.47;2.22;;;;;;;12.20;56.44;102699.75;5017437;28;20041;-78
2022/07/09 00:18:54;;;;;;;4.28;3.05;;;;;;;12.23;56.57;102690.06;4998871;28;20662;-77
2022/07/09 00:21:19;;;;;;;6.25;2.85;;;;;;;12.27;56.51;102686.50;5014700;28;20103;-77
2022/07/09 00:23:45;;;;;;;6.32;3.30;;;;;;;12.37;56.80;102683.72;5015103;28;20064;-78
2022/07/09 00:26:10;;;;;;;9.75;3.50;;;;;;;12.47;56.58;102682.66;5012773;28;20092;-77
2022/07/09 00:28:36;;;;;;;7.03;2.95;;;;;;;12.55;56.32;102685.97;5017219;28;20028;-77
2022/07/09 00:31:01;;;;;;;8.13;2.70;;;;;;;12.59;56.49;102685.03;5011477;28;20314;-77
2022/07/09 00:33:27;;;;;;;6.47;3.40;;;;;;;12.73;56.30;102686.53;5033449;28;20073;-75
2022/07/09 00:35:52;;;;;;;4.70;2.22;;;;;;;12.79;56.16;102673.31;5012769;28;20080;-76
2022/07/09 00:38:18;;;;;;;5.45;2.45;;;;;;;12.87;56.02;102676.59;5029788;28;20051;-77
2022/07/09 00:40:43;;;;;;;4.70;2.47;;;;;;;12.73;56.19;102673.41;5018329;28;20074;-76
2022/07/09 00:43:19;;;;;;;10.02;2.22;;;;;;;12.83;56.11;102674.97;5013061;28;20086;-77
2022/07/09 00:45:46;;;;;;;5.55;3.40;;;;;;;12.80;56.00;102669.75;5010000;28;20045;-77
2022/07/09 00:48:12;;;;;;;7.30;2.42;;;;;;;12.88;56.32;102673.09;5016582;28;20116;-75
2022/07/09 00:50:39;;;;;;;4.10;2.42;;;;;;;12.93;56.25;102676.50;5011956;28;20103;-76
2022/07/09 00:53:06;;;;;;;10.88;3.28;;;;;;;12.90;56.47;102666.06;5017449;28;20052;-76
2022/07/09 00:55:32;;;;;;;8.25;2.80;;;;;;;12.84;56.46;102658.31;4988277;28;20045;-76
2022/07/09 00:57:58;;;;;;;5.07;2.20;;;;;;;12.99;56.29;102665.88;5014724;28;20779;-78
2022/07/09 01:00:23;;;;;;;5.22;2.50;;;;;;;13.09;56.64;102649.03;5011751;28;20049;-76
2022/07/09 01:02:49;;;;;;;4.20;2.05;;;;;;;13.11;55.93;102649.81;4999518;28;20081;-77
2022/07/09 01:05:14;;;;;;;6.82;2.22;;;;;;;13.08;56.16;102636.78;5014903;28;20075;-77
2022/07/09 01:07:41;;;;;;;5.25;3.35;;;;;;;13.10;56.25;102653.38;5015209;28;20056;-78
2022/07/09 01:10:06;;;;;;;8.82;2.13;;;;;;;13.24;55.99;102644.31;4981233;28;20049;-76
2022/07/09 01:12:32;;;;;;;8.70;2.58;;;;;;;13.29;56.18;102637.19;5030683;28;20577;-78
2022/07/09 01:14:58;;;;;;;6.22;1.75;;;;;;;13.25;56.23;102632.91;5015028;28;20084;-77
2022/07/09 01:17:23;;;;;;;8.52;2.05;;;;;;;13.31;55.80;102622.25;5003021;28;20065;-76
2022/07/09 01:19:49;;;;;;;7.97;1.98;;;;;;;13.30;55.97;102631.91;5016832;28;20037;-77
2022/07/09 01:22:14;;;;;;;5.32;2.10;;;;;;;13.29;56.25;102629.31;5014058;28;20033;-78
2022/07/09 01:24:40;;;;;;;3.42;2.13;;;;;;;13.02;56.58;102629.03;5010775;28;20056;-77
2022/07/09 01:27:07;;;;;;;3.92;2.35;;;;;;;13.09;56.87;102622.78;5013741;28;20033;-77
2022/07/09 01:29:33;;;;;;;6.20;2.85;;;;;;;13.11;56.92;102627.97;5018398;28;20038;-77
2022/07/09 01:31:58;;;;;;;7.43;2.53;;;;;;;13.12;56.92;102627.09;5015832;28;20041;-78
2022/07/09 01:34:23;;;;;;;7.18;3.22;;;;;;;13.08;56.66;102622.81;5015898;28;20459;-77
2022/07/09 01:36:49;;;;;;;7.43;2.92;;;;;;;13.18;56.93;102621.66;5034291;28;20524;-76
2022/07/09 01:39:15;;;;;;;5.50;2.53;;;;;;;13.23;56.74;102613.72;5003401;28;20037;-77
2022/07/09 01:41:40;;;;;;;7.75;2.38;;;;;;;13.10;57.15;102616.63;5017271;28;20329;-75
2022/07/09 01:44:06;;;;;;;7.57;2.53;;;;;;;13.18;56.80;102620.81;5013008;28;20044;-75
2022/07/09 01:46:33;;;;;;;7.20;1.80;;;;;;;13.29;56.92;102608.28;5017157;28;20029;-74
2022/07/09 01:48:58;;;;;;;6.30;2.25;;;;;;;13.24;57.09;102605.78;5011901;28;20429;-76
2022/07/09 01:51:24;;;;;;;6.35;2.00;;;;;;;13.44;56.68;102604.44;5010903;28;20033;-75
2022/07/09 01:53:50;;;;;;;6.45;2.35;;;;;;;13.29;57.08;102603.94;5028213;28;20940;-75
2022/07/09 01:56:15;;;;;;;7.07;1.60;;;;;;;13.38;56.97;102601.97;5012485;28;20111;-76
2022/07/09 01:58:41;;;;;;;7.85;2.20;;;;;;;13.41;56.95;102612.41;5016995;28;20395;-77
2022/07/09 02:01:07;;;;;;;2.53;2.10;;;;;;;13.38;56.96;102596.72;5015992;28;20124;-74
2022/07/09 02:03:33;;;;;;;6.35;2.20;;;;;;;13.49;56.82;102600.78;5004226;28;20100;-76
2022/07/09 02:05:58;;;;;;;8.35;1.73;;;;;;;13.43;56.91;102594.81;5029989;28;20050;-75
2022/07/09 02:08:24;;;;;;;6.18;2.10;;;;;;;13.48;56.56;102593.81;5018625;28;20033;-77
2022/07/09 02:10:50;;;;;;;5.53;2.17;;;;;;;13.46;57.00;102593.00;4978095;28;20377;-78
2022/07/09 02:13:15;;;;;;;6.80;2.50;;;;;;;13.47;56.92;102586.84;4996500;28;20029;-76
2022/07/09 02:15:41;;;;;;;6.70;2.13;;;;;;;13.56;57.00;102587.50;5013273;28;20396;-77
2022/07/09 02:18:06;;;;;;;4.63;1.67;;;;;;;13.62;56.78;102590.00;5000910;28;20435;-76
2022/07/09 02:20:32;;;;;;;3.20;1.25;;;;;;;13.55;56.68;102591.03;5033851;28;20118;-76
2022/07/09 02:22:58;;;;;;;3.53;2.13;;;;;;;13.46;57.34;102582.50;4989858;28;20057;-76
2022/07/09 02:25:23;;;;;;;3.83;1.48;;;;;;;13.69;56.82;102570.56;5017636;28;20080;-77
2022/07/09 02:27:50;;;;;;;1.95;1.33;;;;;;;13.65;56.90;102576.78;5011769;28;20111;-77
2022/07/09 02:30:16;;;;;;;4.88;1.27;;;;;;;13.70;56.92;102577.56;4981489;28;20646;-75
2022/07/09 02:32:42;;;;;;;9.48;1.58;;;;;;;13.50;57.45;102572.78;5011284;28;20029;-76
2022/07/09 02:35:08;;;;;;;7.85;2.03;;;;;;;13.58;57.46;102572.59;4998590;28;20333;-77
2022/07/09 02:37:33;;;;;;;6.65;2.20;;;;;;;13.53;57.58;102565.66;5018552;28;20431;-77
2022/07/09 02:39:59;;;;;;;3.90;1.00;;;;;;;13.67;57.29;102564.47;5021661;28;20045;-77
2022/07/09 02:42:25;;;;;;;9.95;1.60;;;;;;;13.64;56.87;102564.56;5016228;28;20170;-75
2022/07/09 02:44:50;;;;;;;5.18;1.60;;;;;;;13.56;57.55;102563.84;5014219;28;20125;-76
2022/07/09 02:47:16;;;;;;;5.72;1.30;;;;;;;13.62;57.87;102561.97;5007683;28;20064;-76
2022/07/09 02:49:41;;;;;;;1.85;0.90;;;;;;;13.75;57.46;102556.41;4973648;28;20076;-76
2022/07/09 02:52:07;;;;;;;6.20;1.63;;;;;;;13.34;58.33;102551.28;5019748;28;20779;-76
2022/07/09 02:54:33;;;;;;;3.72;1.05;;;;;;;13.62;57.92;102542.72;5013722;28;20123;-77
2022/07/09 02:56:59;;;;;;;7.25;1.15;;;;;;;13.45;58.19;102536.13;5015043;28;20052;-78
2022/07/09 02:59:25;;;;;;;4.68;1.17;;;;;;;13.47;58.12;102534.31;5015412;28;20368;-76
2022/07/09 03:01:51;;;;;;;3.92;1.30;;;;;;;13.32;58.92;102532.09;5020418;28;20490;-75
2022/07/09 03:04:16;;;;;;;9.48;1.58;;;;;;;13.37;58.41;102540.69;5018676;28;20113;-78
2022/07/09 03:06:42;;;;;;;4.18;1.38;;;;;;;13.41;58.34;102533.63;4996936;28;20038;-77
2022/07/09 03:09:08;;;;;;;3.65;2.22;;;;;;;13.18;59.01;102542.06;4991873;28;20213;-78
2022/07/09 03:11:33;;;;;;;2.85;1.02;;;;;;;13.42;58.65;102538.81;5022205;28;20111;-76
2022/07/09 03:13:59;;;;;;;6.50;1.55;;;;;;;13.39;58.55;102538.03;5000123;28;20548;-75
2022/07/09 03:16:24;;;;;;;5.00;1.27;;;;;;;13.27;58.84;102536.56;5017185;28;20041;-75
2022/07/09 03:18:50;;;;;;;6.72;0.95;;;;;;;13.45;58.63;102537.88;5002998;28;20065;-77
2022/07/09 03:21:15;;;;;;;4.18;1.30;;;;;;;13.41;58.70;102526.59;4996307;28;20049;-75
2022/07/09 03:23:40;;;;;;;2.83;0.90;;;;;;;13.53;58.53;102531.50;5021313;28;20029;-74
2022/07/09 03:26:06;;;;;;;6.05;1.20;;;;;;;13.53;58.42;102521.00;5005481;28;20574;-75
2022/07/09 03:28:34;;;;;;;4.60;2.33;;;;;;;13.61;58.04;102517.38;5013621;28;20033;-75
2022/07/09 03:31:00;;;;;;;2.20;1.00;;;;;;;13.64;58.24;102520.75;5029271;28;20044;-75
2022/07/09 03:33:26;;;;;;;4.57;1.48;;;;;;;13.41;58.44;102518.72;5014801;28;20068;-75
2022/07/09 03:35:54;;;;;;;3.67;0.95;;;;;;;13.46;58.42;102522.06;5017145;28;20041;-77
2022/07/09 03:38:19;;;;;;;4.10;1.23;;;;;;;13.53;58.27;102515.75;5014295;28;20087;-76
2022/07/09 03:40:45;;;;;;;3.72;1.50;;;;;;;13.61;57.97;102528.72;5000999;28;20070;-77
2022/07/09 03:43:10;;;;;;;6.65;1.88;;;;;;;13.59;57.84;102522.66;5017129;28;20477;-76
2022/07/09 03:45:36;;;;;;;3.42;1.92;;;;;;;13.58;57.80;102520.06;5017231;28;20060;-77
2022/07/09 03:48:01;;;;;;;5.38;1.52;;;;;;;13.55;57.49;102522.75;4996824;28;20040;-79
2022/07/09 03:50:27;;;;;;;3.28;2.20;;;;;;;13.31;58.16;102517.22;5013243;28;20144;-76
2022/07/09 03:52:52;;;;;;;6.47;2.17;;;;;;;13.33;57.95;102511.00;4995659;28;20033;-77
2022/07/09 03:55:18;;;;;;;5.68;2.58;;;;;;;13.30;58.07;102524.25;5017824;28;20099;-76
2022/07/09 03:57:43;;;;;;;5.28;2.00;;;;;;;13.17;58.42;102514.09;5012552;28;20423;-77
2022/07/09 04:00:09;;;;;;;7.78;2.20;;;;;;;13.30;58.52;102518.97;5013581;28;20128;-77
2022/07/09 04:02:43;;;;;;;7.13;2.22;;;;;;;13.40;58.26;102509.09;5029686;28;20029;-78
2022/07/09 04:05:09;;;;;;;5.35;2.58;;;;;;;13.45;58.13;102514.22;5018979;28;20940;-76
2022/07/09 04:07:35;;;;;;;8.02;2.05;;;;;;;13.56;57.78;102519.19;5031960;28;20095;-75
2022/07/09 04:10:00;;;;;;;3.78;1.98;;;;;;;13.69;57.84;102526.75;5027638;28;20463;-77
2022/07/09 04:12:26;;;;;;;5.50;2.95;;;;;;;13.68;57.35;102505.78;5014992;28;20037;-77
2022/07/09 04:14:51;;;;;;;9.52;3.10;;;;;;;13.30;58.14;102499.75;4992543;28;20049;-78
2022/07/09 04:17:17;;;;;;;6.32;2.70;;;;;;;13.31;58.68;102498.84;5018992;28;20029;-77
2022/07/09 04:19:42;;;;;;;9.48;2.58;;;;;;;13.61;58.00;102506.88;5010600;28;20075;-76
2022/07/09 04:22:08;;;;;;;6.68;2.08;;;;;;;13.48;58.57;102501.88;5012838;28;20041;-77
2022/07/09 04:24:33;;;;;;;6.28;2.15;;;;;;;13.50;58.56;102507.97;5012227;28;20745;-77
2022/07/09 04:26:59;;;;;;;5.75;2.28;;;;;;;13.69;58.32;102521.47;5003411;28;20396;-76
2022/07/09 04:29:24;;;;;;;8.68;3.00;;;;;;;13.85;58.00;102516.69;5003589;28;20207;-78
2022/07/09 04:31:50;;;;;;;6.38;2.45;;;;;;;14.00;57.59;102519.78;5012665;28;20590;-75
2022/07/09 04:34:15;;;;;;;8.20;2.42;;;;;;;13.99;58.09;102523.34;5001129;28;20041;-77
2022/07/09 04:36:41;;;;;;;4.68;2.50;;;;;;;14.00;57.82;102528.53;4996729;28;20025;-75
2022/07/09 04:39:06;;;;;;;6.75;2.45;;;;;;;14.17;57.66;102522.81;5017089;28;20446;-77
2022/07/09 04:41:32;;;;;;;5.05;1.52;;;;;;;13.97;57.96;102520.75;5019272;28;20846;-77
2022/07/09 04:43:58;;;;;;;5.05;1.80;;;;;;;14.28;57.51;102518.09;5031086;28;20061;-76
2022/07/09 04:46:24;;;;;;;3.10;1.13;;;;;;;14.35;57.27;102519.63;5012235;28;20067;-76
2022/07/09 04:48:50;;;;;;;3.90;1.33;;;;;;;14.34;57.23;102514.41;5033616;28;20033;-77
2022/07/09 04:51:16;;;;;;;2.42;1.33;;;;;;;14.25;57.17;102522.56;5021294;28;20030;-76
2022/07/09 04:53:41;;;;;;;1.70;0.85;;;;;;;14.50;57.10;102522.72;5014858;28;20053;-76
2022/07/09 04:56:07;;;;;;;3.17;1.00;;;;;;;14.55;56.79;102523.47;4997607;28;20044;-78
2022/07/09 04:58:33;;;;;;;4.90;1.00;;;;;;;14.55;56.58;102519.06;4999506;28;20052;-79
2022/07/09 05:00:59;;;;;;;2.80;0.57;;;;;;;14.65;56.41;102524.88;5001342;28;20041;-77
2022/07/09 05:03:24;;;;;;;4.30;1.20;;;;;;;14.59;56.71;102513.69;5016928;28;20018;-76
2022/07/09 05:05:51;;;;;;;7.88;1.38;;;;;;;14.60;56.48;102516.28;4974646;28;20044;-77
2022/07/09 05:08:18;;;;;;;5.78;0.80;;;;;;;14.31;56.92;102515.34;5019341;28;20127;-78
2022/07/09 05:10:44;;;;;;;7.53;0.98;;;;;;;14.61;56.58;102528.50;5013695;28;20770;-78
2022/07/09 05:13:09;;;;;;;4.65;0.80;;;;;;;14.39;57.04;102511.63;5002115;28;20041;-77
2022/07/09 05:15:35;;;;;;;3.67;0.88;;;;;;;14.53;56.86;102525.28;5012610;28;20728;-78
2022/07/09 05:18:00;;;;;;;5.38;1.42;;;;;;;14.62;56.52;102524.13;4998642;28;20042;-77
2022/07/09 05:20:26;;;;;;;6.80;1.13;;;;;;;14.69;56.38;102523.88;5011552;28;20536;-77
2022/07/09 05:22:52;;;;;;;6.93;0.73;;;;;;;14.84;56.11;102514.66;5011914;28;20034;-77
2022/07/09 05:25:17;;;;;;;5.72;1.10;;;;;;;14.99;56.13;102513.28;5014746;28;20110;-76
2022/07/09 05:27:45;;;;;;;4.97;0.82;;;;;;;14.82;55.79;102523.50;5012657;28;20069;-79
2022/07/09 05:30:15;;;;;;;2.33;0.85;;;;;;;15.01;55.66;102521.13;5027987;28;20247;-76
2022/07/09 05:32:42;;;;;;;9.27;0.85;;;;;;;15.17;55.67;102519.72;5016039;28;20552;-76
2022/07/09 05:35:08;;;;;;;3.38;0.80;;;;;;;15.21;55.35;102517.84;5001345;28;20087;-77
2022/07/09 05:37:40;;;;;;;2.78;0.75;;;;;;;15.45;54.96;102514.41;5015996;28;20430;-78
2022/07/09 05:40:06;;;;;;;4.57;0.70;;;;;;;15.33;55.10;102512.19;5009097;28;20057;-76
2022/07/09 05:42:35;;;;;;;5.53;0.70;;;;;;;15.35;55.10;102513.88;5012880;28;20037;-76
2022/07/09 05:45:00;;;;;;;5.15;1.05;;;;;;;15.38;54.50;102516.38;4994418;28;20143;-77
2022/07/09 05:47:26;;;;;;;3.22;0.85;;;;;;;15.30;55.07;102514.91;4996950;28;20483;-76
2022/07/09 05:49:52;;;;;;;2.17;0.80;;;;;;;15.32;55.17;102515.72;4975856;28;20158;-75
2022/07/09 05:52:17;;;;;;;6.30;1.10;;;;;;;15.36;54.85;102512.94;5014118;28;20029;-76
2022/07/09 05:54:43;;;;;;;4.03;1.02;;;;;;;15.63;54.96;102520.78;5010095;28;20213;-77
2022/07/09 05:57:08;;;;;;;6.40;1.38;;;;;;;15.68;54.51;102518.00;5017700;28;20415;-76
2022/07/09 05:59:34;;;;;;;4.38;1.60;;;;;;;15.74;54.11;102510.72;4995199;28;20042;-76
2022/07/09 06:02:02;;;;;;;3.08;0.98;;;;;;;15.49;54.86;102510.75;4998965;28;20128;-77
2022/07/09 06:04:28;;;;;;;3.67;0.98;;;;;;;15.69;54.67;102509.19;5015405;28;20173;-78
2022/07/09 06:06:54;;;;;;;8.65;1.33;;;;;;;15.62;54.60;102507.66;5016546;28;20120;-76
2022/07/09 06:09:20;;;;;;;8.10;1.40;;;;;;;15.75;54.51;102519.50;5009746;28;20052;-77
2022/07/09 06:11:45;;;;;;;4.38;1.48;;;;;;;15.66;54.51;102504.88;5016713;28;20034;-78
2022/07/09 06:14:11;;;;;;;7.05;1.45;;;;;;;15.57;54.96;102510.47;4973369;28;20121;-76
2022/07/09 06:16:36;;;;;;;8.82;1.35;;;;;;;15.30;56.11;102518.41;5016173;28;20048;-78
2022/07/09 06:19:02;;;;;;;3.10;1.25;;;;;;;15.61;55.63;102516.50;5016897;28;20029;-77
2022/07/09 06:21:27;;;;;;;7.65;1.65;;;;;;;15.79;55.45;102507.91;5016734;28;20049;-77
2022/07/09 06:23:53;;;;;;;3.80;0.93;;;;;;;15.77;55.43;102512.38;5000675;28;20384;-78
2022/07/09 06:26:18;;;;;;;4.88;1.20;;;;;;;16.14;54.75;102521.63;5015756;28;20033;-78
2022/07/09 06:28:44;;;;;;;4.80;1.55;;;;;;;16.48;53.65;102515.06;5003972;28;20034;-77
2022/07/09 06:31:09;;;;;;;3.60;1.45;;;;;;;16.53;52.71;102508.69;5034500;28;20045;-78
2022/07/09 06:33:35;;;;;;;3.20;0.85;;;;;;;16.39;52.63;102500.44;5001103;28;20124;-77
2022/07/09 06:36:01;;;;;;;3.30;1.02;;;;;;;16.56;52.19;102497.16;4983368;28;20045;-75
2022/07/09 06:38:30;;;;;;;5.43;0.63;;;;;;;17.13;50.52;102494.84;5037682;28;20292;-77
2022/07/09 06:40:56;;;;;;;5.43;1.17;;;;;;;17.37;50.13;102495.56;5003468;28;20050;-76
2022/07/09 06:43:22;;;;;;;6.78;0.90;;;;;;;17.70;48.46;102497.72;5020323;28;20025;-78
2022/07/09 06:45:53;;;;;;;7.03;0.70;;;;;;;17.39;49.38;102499.00;4974521;28;20569;-76
2022/07/09 06:48:18;;;;;;;3.72;0.63;;;;;;;17.51;49.02;102495.84;5020339;28;20119;-76
2022/07/09 06:50:44;;;;;;;2.15;0.75;;;;;;;17.24;49.81;102493.44;5016382;28;20503;-76
2022/07/09 06:53:09;;;;;;;2.35;0.77;;;;;;;17.90;48.45;102494.16;5017452;28;20121;-75
2022/07/09 06:55:35;;;;;;;2.67;0.60;;;;;;;18.04;47.64;102495.22;5033220;28;20269;-77
2022/07/09 06:58:00;;;;;;;3.90;0.55;;;;;;;18.38;47.07;102490.16;5050207;28;20048;-75
2022/07/09 07:00:26;;;;;;;1.58;0.30;;;;;;;18.37;46.76;102484.03;5029790;28;20214;-77
2022/07/09 07:02:51;;;;;;;5.93;0.90;;;;;;;18.69;45.52;102495.69;5012632;28;20033;-75
2022/07/09 07:05:17;;;;;;;6.30;0.60;;;;;;;19.67;43.76;102507.59;5017220;28;20037;-76
2022/07/09 07:07:43;;;;;;;4.35;0.60;;;;;;;21.10;40.68;102489.84;5016496;28;20071;-76
2022/07/09 07:10:08;;;;;;;4.30;0.98;;;;;;;22.73;37.93;102494.81;5015510;28;20046;-78
2022/07/09 07:12:34;;;;;;;1.67;0.30;;;;;;;23.36;37.02;102493.22;5011994;28;20480;-76
2022/07/09 07:15:00;;;;;;;4.55;0.40;;;;;;;22.18;38.06;102493.91;4997538;28;20064;-78
2022/07/09 07:17:25;;;;;;;3.03;0.30;;;;;;;21.08;38.13;102491.75;5033610;28;20071;-77
2022/07/09 07:19:51;;;;;;;2.75;0.63;;;;;;;20.06;40.73;102496.63;4992447;28;20049;-79
2022/07/09 07:22:17;;;;;;;1.67;0.30;;;;;;;19.51;41.84;102489.81;5002779;28;20531;-78
2022/07/09 07:24:42;;;;;;;1.27;0.30;;;;;;;18.95;42.87;102501.53;5009907;28;20038;-79
2022/07/09 07:27:08;;;;;;;2.20;0.40;;;;;;;18.77;43.81;102497.97;5012134;28;20080;-78
2022/07/09 07:29:33;;;;;;;2.58;0.47;;;;;;;19.19;43.69;102502.09;5011867;28;20346;-78
2022/07/09 07:31:59;;;;;;;3.70;0.45;;;;;;;18.96;44.13;102497.09;5010375;28;20025;-77
2022/07/09 07:34:25;;;;;;;2.13;0.35;;;;;;;18.62;44.20;102498.72;5017021;28;20039;-78
2022/07/09 07:36:51;;;;;;;2.03;0.35;;;;;;;18.10;45.00;102501.19;5000201;28;20139;-77
2022/07/09 07:39:19;;;;;;;1.88;0.40;;;;;;;18.05;45.30;102499.59;5003870;28;20153;-78
2022/07/09 07:41:44;;;;;;;1.70;0.52;;;;;;;18.32;44.89;102498.41;5016940;28;20030;-79
2022/07/09 07:44:10;;;;;;;2.85;0.57;;;;;;;18.18;45.53;102501.66;5015376;28;20064;-76
2022/07/09 07:46:36;;;;;;;3.13;0.93;;;;;;;17.88;45.21;102502.16;5016645;28;20408;-75
2022/07/09 07:49:01;;;;;;;1.88;0.20;;;;;;;17.62;45.03;102503.31;5018360;28;20033;-77
2022/07/09 07:51:27;;;;;;;1.27;0.63;;;;;;;17.44;46.02;102499.66;5014437;28;20506;-77
2022/07/09 07:53:52;;;;;;;3.83;0.60;;;;;;;19.30;42.43;102497.09;5012926;28;20033;-76
2022/07/09 07:56:18;;;;;;;1.38;0.20;;;;;;;21.39;38.08;102491.72;5017810;28;20025;-76
2022/07/09 07:58:44;;;;;;;4.68;0.52;;;;;;;21.61;37.38;102489.47;5013530;28;20373;-75
2022/07/09 08:01:09;;;;;;;2.42;0.52;;;;;;;23.03;34.78;102491.03;5016175;28;20046;-76
2022/07/09 08:03:35;;;;;;;4.85;0.30;;;;;;;21.50;36.40;102491.94;5012726;28;20072;-76
2022/07/09 08:06:00;;;;;;;3.60;0.28;;;;;;;19.85;39.81;102506.59;5012779;28;20057;-77
2022/07/09 08:08:27;;;;;;;1.77;0.38;;;;;;;18.48;43.25;102510.84;5013314;28;20033;-77
2022/07/09 08:10:52;;;;;;;5.30;0.38;;;;;;;17.57;45.42;102515.88;4995197;28;20077;-75
2022/07/09 08:13:18;;;;;;;3.85;0.45;;;;;;;18.07;43.78;102518.03;5009680;28;20531;-75
2022/07/09 08:15:44;;;;;;;5.35;0.60;;;;;;;18.75;43.11;102515.72;4998490;28;20040;-76
2022/07/09 08:18:12;;;;;;;5.13;0.40;;;;;;;19.74;39.90;102518.75;5009688;28;20151;-77
2022/07/09 08:20:41;;;;;;;3.42;0.20;;;;;;;18.62;42.33;102509.31;5009180;28;20033;-77
2022/07/09 08:23:08;;;;;;;7.05;0.60;;;;;;;17.96;44.53;102510.63;5017262;28;20427;-75
2022/07/09 08:25:33;;;;;;;3.00;0.50;;;;;;;17.23;45.62;102520.81;5028536;28;20607;-76
2022/07/09 08:27:59;;;;;;;1.92;0.30;;;;;;;16.85;46.84;102513.63;4997146;28;20033;-76
2022/07/09 08:30:24;;;;;;;2.70;0.35;;;;;;;18.15;44.85;102513.25;5011263;28;20076;-76
2022/07/09 08:32:50;;;;;;;2.38;0.55;;;;;;;20.19;39.54;102512.72;5009424;28;20033;-77
2022/07/09 08:35:16;;;;;;;5.03;0.40;;;;;;;20.60;37.38;102496.31;5012029;28;20042;-75
2022/07/09 08:37:41;;;;;;;3.72;0.40;;;;;;;20.79;36.70;102501.41;5014409;28;20045;-77
2022/07/09 08:40:22;;;;;;;4.40;0.50;;;;;;;19.82;38.84;102501.47;4997049;28;20037;-77
2022/07/09 08:42:49;;;;;;;1.67;0.20;;;;;;;21.90;36.40;102494.78;4997816;28;20136;-77
2022/07/09 08:45:23;;;;;;;2.33;0.40;;;;;;;22.06;34.64;102492.00;4990072;28;20461;-77
2022/07/09 08:47:53;;;;;;;2.80;0.32;;;;;;;20.37;37.18;102484.31;5014692;28;20140;-76
2022/07/09 08:50:46;;;;;;;4.82;0.28;;;;;;;18.93;40.41;102497.25;4988709;28;20051;-77
2022/07/09 08:53:19;;;;;;;0.73;0.30;;;;;;;20.34;38.44;102484.50;5014212;28;20100;-76
2022/07/09 08:56:17;;;;;;;2.28;0.28;;;;;;;21.59;37.63;102496.69;4992444;28;20045;-77
2022/07/09 08:58:52;;;;;;;5.35;0.75;;;;;;;21.10;37.21;102495.16;5008105;28;20057;-78
2022/07/09 09:01:17;;;;;;;2.58;0.38;;;;;;;21.30;37.14;102493.97;5002398;28;20658;-77
2022/07/09 09:03:48;;;;;;;3.20;0.75;;;;;;;20.00;40.17;102498.78;5013142;28;20040;-78
2022/07/09 09:06:33;;;;;;;;;;;;;;;;;;;;;
2022/07/09 09:08:59;;;;;;;9.57;0.45;;;;;;;18.55;43.01;102492.88;5025490;28;20495;-76
2022/07/09 09:11:28;;;;;;;1.83;0.50;;;;;;;18.65;41.75;102494.16;5014267;28;20030;-76
2022/07/09 09:13:57;;;;;;;8.05;0.60;;;;;;;19.87;39.13;102494.13;5006535;28;20037;-78
2022/07/09 09:16:42;;;;;;;1.98;0.30;;;;;;;20.47;38.46;102493.50;5027821;28;20040;-77
2022/07/09 09:19:48;;;;;;;4.05;0.47;;;;;;;20.20;38.62;102484.41;4990148;28;20041;-76
2022/07/09 09:25:18;;;;;;;2.45;1.15;;;;;;;21.33;35.64;102480.50;5008988;28;20597;-75
2022/07/09 09:28:00;;;;;;;2.25;0.30;;;;;;;21.44;36.37;102490.47;5000086;28;20025;-77
2022/07/09 09:30:31;;;;;;;2.20;0.28;;;;;;;19.97;37.17;102485.66;5009705;28;20119;-76
2022/07/09 09:33:11;;;;;;;2.90;0.40;;;;;;;20.06;37.33;102495.75;5011860;28;20033;-76
2022/07/09 09:35:57;;;;;;;2.95;0.45;;;;;;;19.37;39.04;102491.44;4999795;28;20030;-75
2022/07/09 09:38:37;;;;;;;4.90;0.47;;;;;;;18.10;42.75;102490.59;5017178;28;20037;-76
2022/07/09 09:41:30;;;;;;;3.70;0.68;;;;;;;18.34;42.39;102499.19;5011285;28;20073;-76
2022/07/09 09:44:03;;;;;;;2.75;0.38;;;;;;;17.47;43.85;102496.03;5005277;28;20048;-77
2022/07/09 09:47:06;;;;;;;6.05;0.93;;;;;;;16.49;47.53;102522.03;5024729;28;20028;-78
2022/07/09 09:49:42;;;;;;;2.75;0.40;;;;;;;15.70;51.70;102547.78;5009963;28;20052;-77
2022/07/09 09:52:22;;;;;;;1.30;0.45;;;;;;;15.00;53.60;102557.13;5023588;28;20057;-77
2022/07/09 09:54:54;;;;;;;2.60;0.40;;;;;;;14.92;54.41;102553.88;4959173;28;20041;-75
2022/07/09 09:57:26;;;;;;;1.90;0.77;;;;;;;14.34;55.85;102557.38;4991590;28;20720;-76
2022/07/09 09:59:56;;;;;;;7.57;0.63;;;;;;;14.44;56.12;102565.00;5008771;28;20049;-78
2022/07/09 10:02:32;;;;;;;9.13;0.90;;;;;;;14.13;56.45;102560.59;5014685;28;20045;-76
2022/07/09 10:05:07;;;;;;;3.20;0.90;;;;;;;14.17;56.86;102564.88;5011249;28;20046;-77
2022/07/09 10:08:15;;;;;;;5.88;0.77;;;;;;;14.23;56.94;102569.09;5001487;28;20116;-76
2022/07/09 10:10:50;;;;;;;3.72;1.52;;;;;;;14.44;56.35;102567.66;4916179;28;20275;-75
2022/07/09 10:13:21;;;;;;;9.13;1.85;;;;;;;15.01;56.06;102572.00;4939573;28;20053;-77
2022/07/09 10:16:01;;;;;;;7.40;2.63;;;;;;;15.51;54.99;102572.16;4976600;28;20057;-76
2022/07/09 10:18:33;;;;;;;5.63;1.02;;;;;;;15.69;52.76;102572.44;5014636;28;20033;-77
2022/07/09 10:21:41;;;;;;;8.70;1.30;;;;;;;16.03;52.77;102587.09;4988909;28;20048;-77
2022/07/09 10:24:30;;;;;;;1.63;1.13;;;;;;;16.56;52.12;102571.91;5005012;28;20083;-76
2022/07/09 10:27:08;;;;;;;4.18;0.50;;;;;;;17.27;49.85;102570.88;5011667;28;20061;-76
2022/07/09 10:30:20;;;;;;;2.53;0.60;;;;;;;18.11;49.36;102563.75;5004669;28;20077;-77
2022/07/09 10:33:13;;;;;;;2.17;0.68;;;;;;;18.20;45.98;102566.00;4995553;28;20066;-76
2022/07/09 10:36:13;;;;;;;3.97;1.10;;;;;;;18.27;46.60;102562.13;4981628;28;20049;-76
2022/07/09 10:38:59;;;;;;;3.42;0.82;;;;;;;17.65;45.56;102570.16;4993061;28;20053;-77
2022/07/09 10:41:28;;;;;;;5.88;0.80;;;;;;;17.36;46.72;102567.88;4991704;28;20514;-74
2022/07/09 10:44:03;;;;;;;4.90;0.52;;;;;;;17.18;44.96;102567.72;4966315;28;20037;-76
2022/07/09 10:46:36;;;;;;;4.55;0.47;;;;;;;17.52;44.73;102582.19;5016456;28;20029;-75
2022/07/09 10:49:02;;;;;;;8.02;0.70;;;;;;;17.41;44.04;102581.75;4986875;28;20046;-77
2022/07/09 10:51:46;;;;;;;7.88;0.35;;;;;;;16.90;44.82;102585.59;5027531;28;20036;-76
2022/07/09 10:54:16;;;;;;;7.15;0.57;;;;;;;17.30;42.96;102586.63;5003948;28;20041;-76
2022/07/09 10:56:52;;;;;;;8.45;0.63;;;;;;;17.24;42.93;102585.06;5016046;28;20099;-76
2022/07/09 10:59:46;;;;;;;4.22;0.55;;;;;;;17.47;42.92;102586.78;5006009;28;20053;-75
2022/07/09 11:02:29;;;;;;;6.65;0.52;;;;;;;17.38;42.32;102581.84;5041256;28;20036;-77
2022/07/09 11:05:11;;;;;;;5.93;0.50;;;;;;;17.90;40.65;102584.09;4984336;28;20113;-77
2022/07/09 11:07:37;;;;;;;;;;;;;;;17.85;40.87;102587.78;5040292;28;20033;-75
2022/07/09 11:10:24;;;;;;;4.57;0.50;;;;;;;18.58;41.14;102587.19;5001667;28;19973;-75
2022/07/09 11:12:51;;;;;;;8.85;0.75;;;;;;;17.78;41.69;102585.47;4997453;28;20060;-78
2022/07/09 11:15:34;;;;;;;1.00;0.32;;;;;;;17.84;39.37;102591.34;5002502;28;20049;-75
2022/07/09 11:18:16;;;;;;;5.97;0.32;;;;;;;18.13;39.69;102598.94;5006003;28;20034;-76
2022/07/09 11:20:46;;;;;;;5.88;0.40;;;;;;;18.31;38.25;102591.97;5024313;28;20044;-76
2022/07/09 11:23:26;;;;;;;3.08;0.20;;;;;;;18.48;38.41;102595.56;4999619;28;20029;-76
2022/07/09 11:25:54;;;;;;;1.70;0.70;;;;;;;19.17;36.44;102593.22;4974804;28;20926;-78
2022/07/09 11:28:21;;;;;;;3.05;0.60;;;;;;;19.25;35.31;102599.84;5003432;28;20053;-75
2022/07/09 11:31:01;;;;;;;2.08;0.20;;;;;;;18.60;35.63;102596.78;5032521;28;20049;-76
2022/07/09 11:36:18;;;;;;;3.10;0.55;;;;;;;19.58;34.58;102600.91;5018859;28;20040;-77
2022/07/09 11:38:48;;;;;;;2.13;0.20;;;;;;;19.03;34.11;102596.53;5015075;28;20029;-77
2022/07/09 11:41:17;;;;;;;9.07;0.30;;;;;;;18.92;35.19;102602.38;5031520;28;20051;-77